createdAt,value
2022-11-28T00:00:09.988Z,71.86
2022-11-28T00:01:09.930Z,71.65
2022-11-28T00:02:10.083Z,71.24
2022-11-28T00:03:10.069Z,71.24
2022-11-28T00:04:09.945Z,71.27
2022-11-28T00:05:10.029Z,70.96
2022-11-28T00:06:09.926Z,71.06
2022-11-28T00:07:09.914Z,71.27
2022-11-28T00:08:09.895Z,71.06
2022-11-28T00:09:09.845Z,71.27
2022-11-28T00:10:09.924Z,71.37
2022-11-28T00:11:09.834Z,71.69
2022-11-28T00:12:09.843Z,71.78
2022-11-28T00:13:09.805Z,71.48
2022-11-28T00:14:09.829Z,71.48
2022-11-28T00:15:09.773Z,71.27
2022-11-28T00:16:09.856Z,71.17
2022-11-28T00:17:09.789Z,71.17
2022-11-28T00:18:09.798Z,70.96
2022-11-28T00:19:09.758Z,71.17
2022-11-28T00:20:09.822Z,71.27
2022-11-28T00:21:09.853Z,70.96
2022-11-28T00:22:09.713Z,71.17
2022-11-28T00:23:09.705Z,71.06
2022-11-28T00:24:09.718Z,71.17
2022-11-28T00:25:09.695Z,71.17
2022-11-28T00:26:09.665Z,71.06
2022-11-28T00:27:09.668Z,71.10
2022-11-28T00:28:09.638Z,71.10
2022-11-28T00:29:09.668Z,71.17
2022-11-28T00:30:09.614Z,71.37
2022-11-28T00:31:09.681Z,70.89
2022-11-28T00:32:09.662Z,70.68
2022-11-28T00:33:09.609Z,71.00
2022-11-28T00:34:09.598Z,71.00
2022-11-28T00:35:09.596Z,71.10
2022-11-28T00:36:09.633Z,71.00
2022-11-28T00:37:09.652Z,70.89
2022-11-28T00:38:09.529Z,71.00
2022-11-28T00:39:09.554Z,71.30
2022-11-28T00:40:09.515Z,70.96
2022-11-28T00:41:09.510Z,71.17
2022-11-28T00:42:09.478Z,71.06
2022-11-28T00:43:09.496Z,71.06
2022-11-28T00:44:09.456Z,71.10
2022-11-28T00:45:09.474Z,71.30
2022-11-28T00:46:09.518Z,71.17
2022-11-28T00:47:09.463Z,71.00
2022-11-28T00:48:09.408Z,71.00
2022-11-28T00:49:09.498Z,71.06
2022-11-28T00:50:09.394Z,71.06
2022-11-28T00:51:09.381Z,70.86
2022-11-28T00:52:09.379Z,70.68
2022-11-28T00:53:09.463Z,71.10
2022-11-28T00:54:09.410Z,71.10
2022-11-28T00:55:09.346Z,71.61
2022-11-28T00:56:09.359Z,71.41
2022-11-28T00:57:09.333Z,71.51
2022-11-28T00:58:09.299Z,71.41
2022-11-28T00:59:09.306Z,71.72
2022-11-28T01:00:09.291Z,71.72
2022-11-28T01:01:09.388Z,71.75
2022-11-28T01:02:09.356Z,71.51
2022-11-28T01:03:09.255Z,71.41
2022-11-28T01:04:09.258Z,71.72
2022-11-28T01:05:09.299Z,71.30
2022-11-28T01:06:09.214Z,71.41
2022-11-28T01:07:09.225Z,71.72
2022-11-28T01:08:09.216Z,71.41
2022-11-28T01:09:09.309Z,71.82
2022-11-28T01:10:09.194Z,71.48
2022-11-28T01:11:09.155Z,71.61
2022-11-28T01:12:09.176Z,71.51
2022-11-28T01:13:09.164Z,71.37
2022-11-28T01:14:09.127Z,71.72
2022-11-28T01:15:09.147Z,71.58
2022-11-28T01:16:09.173Z,71.17
2022-11-28T01:17:09.143Z,71.27
2022-11-28T01:18:09.083Z,71.00
2022-11-28T01:19:09.065Z,71.00
2022-11-28T01:20:09.082Z,71.17
2022-11-28T01:21:09.064Z,70.86
2022-11-28T01:22:09.080Z,71.27
2022-11-28T01:23:09.040Z,71.20
2022-11-28T01:24:09.047Z,70.65
2022-11-28T01:25:09.237Z,71.20
2022-11-28T01:26:09.015Z,71.20
2022-11-28T01:27:09.003Z,71.06
2022-11-28T01:28:08.969Z,71.06
2022-11-28T01:29:08.957Z,71.06
2022-11-28T01:30:08.941Z,70.55
2022-11-28T01:31:09.043Z,71.00
2022-11-28T01:32:08.937Z,71.06
2022-11-28T01:33:08.915Z,70.96
2022-11-28T01:34:08.950Z,70.68
2022-11-28T01:35:08.909Z,70.79
2022-11-28T01:36:08.883Z,70.55
2022-11-28T01:37:08.888Z,70.96
2022-11-28T01:38:08.906Z,71.17
2022-11-28T01:39:08.842Z,70.55
2022-11-28T01:40:08.913Z,71.27
2022-11-28T01:41:08.978Z,71.06
2022-11-28T01:42:08.812Z,71.17
2022-11-28T01:43:08.844Z,70.65
2022-11-28T01:44:08.785Z,71.03
2022-11-28T01:45:08.783Z,70.96
2022-11-28T01:46:08.831Z,71.06
2022-11-28T01:47:08.777Z,70.86
2022-11-28T01:48:08.791Z,71.06
2022-11-28T01:49:08.753Z,70.96
2022-11-28T01:50:08.748Z,70.83
2022-11-28T01:51:08.712Z,71.06
2022-11-28T01:52:08.714Z,71.06
2022-11-28T01:53:08.714Z,71.14
2022-11-28T01:54:08.683Z,70.93
2022-11-28T01:55:08.751Z,70.62
2022-11-28T01:56:08.658Z,70.93
2022-11-28T01:57:08.812Z,70.62
2022-11-28T01:58:08.735Z,70.76
2022-11-28T01:59:08.649Z,70.45
2022-11-28T02:00:08.614Z,70.86
2022-11-28T02:01:08.712Z,70.58
2022-11-28T02:02:08.629Z,71.00
2022-11-28T02:03:08.623Z,71.20
2022-11-28T02:04:08.611Z,71.51
2022-11-28T02:05:08.554Z,71.41
2022-11-28T02:06:08.596Z,71.72
2022-11-28T02:07:08.585Z,71.72
2022-11-28T02:08:08.575Z,71.85
2022-11-28T02:09:08.515Z,72.06
2022-11-28T02:10:08.505Z,72.16
2022-11-28T02:11:08.496Z,71.95
2022-11-28T02:12:08.496Z,71.51
2022-11-28T02:13:08.607Z,72.06
2022-11-28T02:14:08.459Z,71.64
2022-11-28T02:15:08.455Z,71.85
2022-11-28T02:16:08.570Z,72.09
2022-11-28T02:17:08.465Z,73.05
2022-11-28T02:18:08.442Z,73.05
2022-11-28T02:19:08.402Z,73.68
2022-11-28T02:20:08.415Z,73.68
2022-11-28T02:21:08.380Z,73.68
2022-11-28T02:22:08.401Z,73.43
2022-11-28T02:23:08.386Z,73.36
2022-11-28T02:24:08.358Z,73.47
2022-11-28T02:25:08.368Z,73.05
2022-11-28T02:26:08.350Z,73.36
2022-11-28T02:27:08.322Z,73.02
2022-11-28T02:28:08.297Z,73.12
2022-11-28T02:29:08.411Z,73.12
2022-11-28T02:30:08.315Z,73.05
2022-11-28T02:31:08.320Z,72.54
2022-11-28T02:32:08.283Z,72.54
2022-11-28T02:33:08.243Z,73.81
2022-11-28T02:34:08.319Z,73.60
2022-11-28T02:35:08.228Z,73.60
2022-11-28T02:36:08.229Z,73.36
2022-11-28T02:37:08.201Z,73.47
2022-11-28T02:38:08.190Z,72.95
2022-11-28T02:39:08.191Z,73.68
2022-11-28T02:40:08.186Z,73.05
2022-11-28T02:41:08.184Z,73.22
2022-11-28T02:42:08.180Z,73.77
2022-11-28T02:43:08.130Z,73.02
2022-11-28T02:44:08.124Z,73.12
2022-11-28T02:45:08.216Z,73.12
2022-11-28T02:46:08.145Z,72.13
2022-11-28T02:47:08.145Z,72.64
2022-11-28T02:48:08.107Z,72.85
2022-11-28T02:49:08.115Z,72.64
2022-11-28T02:50:08.084Z,72.85
2022-11-28T02:51:08.049Z,73.05
2022-11-28T02:52:08.064Z,73.47
2022-11-28T02:53:08.042Z,73.36
2022-11-28T02:54:08.017Z,73.16
2022-11-28T02:55:07.999Z,72.95
2022-11-28T02:56:07.984Z,73.36
2022-11-28T02:57:08.016Z,73.05
2022-11-28T02:58:08.007Z,72.85
2022-11-28T02:59:07.975Z,72.71
2022-11-28T03:00:07.952Z,72.61
2022-11-28T03:01:08.117Z,72.81
2022-11-28T03:02:07.969Z,72.40
2022-11-28T03:03:07.914Z,72.19
2022-11-28T03:04:07.918Z,72.50
2022-11-28T03:05:07.891Z,72.19
2022-11-28T03:06:07.883Z,72.19
2022-11-28T03:07:07.873Z,72.30
2022-11-28T03:08:07.882Z,72.71
2022-11-28T03:09:07.920Z,71.99
2022-11-28T03:10:07.846Z,71.68
2022-11-28T03:11:07.817Z,71.64
2022-11-28T03:12:07.839Z,71.47
2022-11-28T03:13:07.814Z,71.89
2022-11-28T03:14:07.853Z,71.68
2022-11-28T03:15:07.782Z,72.06
2022-11-28T03:16:07.826Z,71.55
2022-11-28T03:17:07.868Z,71.03
2022-11-28T03:18:07.765Z,71.23
2022-11-28T03:19:07.743Z,71.03
2022-11-28T03:20:07.759Z,71.06
2022-11-28T03:21:07.720Z,71.89
2022-11-28T03:22:07.723Z,71.47
2022-11-28T03:23:07.687Z,71.37
2022-11-28T03:24:07.770Z,71.78
2022-11-28T03:25:07.674Z,71.61
2022-11-28T03:26:07.691Z,71.41
2022-11-28T03:27:07.706Z,71.81
2022-11-28T03:28:07.657Z,71.81
2022-11-28T03:29:07.627Z,72.47
2022-11-28T03:30:07.615Z,72.74
2022-11-28T03:31:07.720Z,72.57
2022-11-28T03:32:07.601Z,72.85
2022-11-28T03:33:07.690Z,72.95
2022-11-28T03:34:07.570Z,72.95
2022-11-28T03:35:07.558Z,72.44
2022-11-28T03:36:07.565Z,72.64
2022-11-28T03:37:07.572Z,72.40
2022-11-28T03:38:07.529Z,72.30
2022-11-28T03:39:07.508Z,72.61
2022-11-28T03:40:07.533Z,71.78
2022-11-28T03:41:07.486Z,70.96
2022-11-28T03:42:07.493Z,71.26
2022-11-28T03:43:07.526Z,70.96
2022-11-28T03:44:07.465Z,70.96
2022-11-28T03:45:07.444Z,71.37
2022-11-28T03:46:07.436Z,70.92
2022-11-28T03:47:07.476Z,70.82
2022-11-28T03:48:07.415Z,70.62
2022-11-28T03:49:07.531Z,70.41
2022-11-28T03:50:07.402Z,70.31
2022-11-28T03:51:07.419Z,70.20
2022-11-28T03:52:07.377Z,70.31
2022-11-28T03:53:07.391Z,70.31
2022-11-28T03:54:07.378Z,69.89
2022-11-28T03:55:07.335Z,70.00
2022-11-28T03:56:07.413Z,70.54
2022-11-28T03:57:07.310Z,70.96
2022-11-28T03:58:07.350Z,70.96
2022-11-28T03:59:07.322Z,70.82
2022-11-28T04:00:07.354Z,70.41
2022-11-28T04:01:07.342Z,70.20
2022-11-28T04:02:07.295Z,70.41
2022-11-28T04:03:07.441Z,70.00
2022-11-28T04:04:07.291Z,70.20
2022-11-28T04:05:07.326Z,69.89
2022-11-28T04:06:07.231Z,69.69
2022-11-28T04:07:07.204Z,69.48
2022-11-28T04:08:07.184Z,69.69
2022-11-28T04:09:11.545Z,69.48
2022-11-28T04:10:07.190Z,69.72
2022-11-28T04:11:07.158Z,69.82
2022-11-28T04:12:07.149Z,70.34
2022-11-28T04:13:07.179Z,70.54
2022-11-28T04:14:07.125Z,70.23
2022-11-28T04:15:07.136Z,70.10
2022-11-28T04:16:07.149Z,70.34
2022-11-28T04:17:07.140Z,70.75
2022-11-28T04:18:07.086Z,70.75
2022-11-28T04:19:07.108Z,70.65
2022-11-28T04:20:07.097Z,70.82
2022-11-28T04:21:07.148Z,70.51
2022-11-28T04:22:07.081Z,70.51
2022-11-28T04:23:07.119Z,70.28
2022-11-28T04:24:07.009Z,70.00
2022-11-28T04:25:06.998Z,69.76
2022-11-28T04:26:07.029Z,69.65
2022-11-28T04:27:06.981Z,69.45
2022-11-28T04:28:06.978Z,68.96
2022-11-28T04:29:06.955Z,69.48
2022-11-28T04:30:06.986Z,69.59
2022-11-28T04:31:07.080Z,69.48
2022-11-28T04:32:06.923Z,68.86
2022-11-28T04:33:06.914Z,69.04
2022-11-28T04:34:06.928Z,69.17
2022-11-28T04:35:06.941Z,68.93
2022-11-28T04:36:06.894Z,68.73
2022-11-28T04:37:09.784Z,69.17
2022-11-28T04:38:06.857Z,68.93
2022-11-28T04:39:06.909Z,68.86
2022-11-28T04:40:06.834Z,68.76
2022-11-28T04:41:06.825Z,68.86
2022-11-28T04:42:06.863Z,68.86
2022-11-28T04:43:06.797Z,68.86
2022-11-28T04:44:06.799Z,68.73
2022-11-28T04:45:06.816Z,68.42
2022-11-28T04:46:06.803Z,68.73
2022-11-28T04:47:06.770Z,68.66
2022-11-28T04:48:06.772Z,68.96
2022-11-28T04:49:06.738Z,68.52
2022-11-28T04:50:06.729Z,68.86
2022-11-28T04:51:06.736Z,69.62
2022-11-28T04:52:06.713Z,69.62
2022-11-28T04:53:06.814Z,69.69
2022-11-28T04:54:06.729Z,69.69
2022-11-28T04:55:06.672Z,69.14
2022-11-28T04:56:06.711Z,68.66
2022-11-28T04:57:06.680Z,68.86
2022-11-28T04:58:06.658Z,68.86
2022-11-28T04:59:06.644Z,68.76
2022-11-28T05:00:06.610Z,68.66
2022-11-28T05:01:06.708Z,68.66
2022-11-28T05:02:06.738Z,68.55
2022-11-28T05:03:06.611Z,68.96
2022-11-28T05:04:06.574Z,68.86
2022-11-28T05:05:06.583Z,69.17
2022-11-28T05:06:06.553Z,68.96
2022-11-28T05:07:06.584Z,69.27
2022-11-28T05:08:06.539Z,69.27
2022-11-28T05:09:06.628Z,69.17
2022-11-28T05:10:06.505Z,69.17
2022-11-28T05:11:06.525Z,69.27
2022-11-28T05:12:06.513Z,69.17
2022-11-28T05:13:06.515Z,69.72
2022-11-28T05:14:06.482Z,69.93
2022-11-28T05:15:06.449Z,70.17
2022-11-28T05:16:06.540Z,70.37
2022-11-28T05:17:06.443Z,70.03
2022-11-28T05:18:06.424Z,70.06
2022-11-28T05:19:06.428Z,70.06
2022-11-28T05:20:06.427Z,70.17
2022-11-28T05:21:06.399Z,70.17
2022-11-28T05:22:06.375Z,69.72
2022-11-28T05:23:06.374Z,69.93
2022-11-28T05:24:06.355Z,69.41
2022-11-28T05:25:06.447Z,69.62
2022-11-28T05:26:06.371Z,69.20
2022-11-28T05:27:06.315Z,69.17
2022-11-28T05:28:06.310Z,68.86
2022-11-28T05:29:06.324Z,68.83
2022-11-28T05:30:06.285Z,69.04
2022-11-28T05:31:06.375Z,68.93
2022-11-28T05:32:06.339Z,68.83
2022-11-28T05:33:06.282Z,68.93
2022-11-28T05:34:06.246Z,69.24
2022-11-28T05:35:06.230Z,69.24
2022-11-28T05:36:09.924Z,69.24
2022-11-28T05:37:06.212Z,68.93
2022-11-28T05:38:09.381Z,68.73
2022-11-28T05:39:07.200Z,68.83
2022-11-28T05:40:06.180Z,68.42
2022-11-28T05:41:06.268Z,69.14
2022-11-28T05:42:06.208Z,68.73
2022-11-28T05:43:06.146Z,69.01
2022-11-28T05:44:06.172Z,69.01
2022-11-28T05:45:06.152Z,68.80
2022-11-28T05:46:06.237Z,69.01
2022-11-28T05:47:06.250Z,68.39
2022-11-28T05:48:06.087Z,68.59
2022-11-28T05:49:06.101Z,68.39
2022-11-28T05:50:06.057Z,67.84
2022-11-28T05:51:06.056Z,67.94
2022-11-28T05:52:06.117Z,68.15
2022-11-28T05:53:06.029Z,68.05
2022-11-28T05:54:06.081Z,68.25
2022-11-28T05:55:06.090Z,67.84
2022-11-28T05:56:06.014Z,67.94
2022-11-28T05:57:06.130Z,67.33
2022-11-28T05:58:05.971Z,68.25
2022-11-28T05:59:06.017Z,68.08
2022-11-28T06:00:05.961Z,68.49
2022-11-28T06:01:05.934Z,68.18
2022-11-28T06:02:05.983Z,67.36
2022-11-28T06:03:05.977Z,68.08
2022-11-28T06:04:05.936Z,68.29
2022-11-28T06:05:27.337Z,68.39
2022-11-28T06:06:05.890Z,68.59
2022-11-28T06:07:05.916Z,67.94
2022-11-28T06:08:05.883Z,67.63
2022-11-28T06:09:05.844Z,66.94
2022-11-28T06:10:05.845Z,67.29
2022-11-28T06:11:05.830Z,67.36
2022-11-28T06:12:05.823Z,67.36
2022-11-28T06:13:05.963Z,67.87
2022-11-28T06:14:05.806Z,67.74
2022-11-28T06:15:05.829Z,67.33
2022-11-28T06:16:05.813Z,67.22
2022-11-28T06:17:05.813Z,67.33
2022-11-28T06:18:05.763Z,67.74
2022-11-28T06:19:05.781Z,67.12
2022-11-28T06:20:05.743Z,67.33
2022-11-28T06:21:05.787Z,67.02
2022-11-28T06:22:05.710Z,66.71
2022-11-28T06:23:05.751Z,66.40
2022-11-28T06:24:05.693Z,67.33
2022-11-28T06:25:05.676Z,67.63
2022-11-28T06:26:05.727Z,66.30
2022-11-28T06:27:05.696Z,66.30
2022-11-28T06:28:05.639Z,66.47
2022-11-28T06:29:05.778Z,66.19
2022-11-28T06:30:05.647Z,66.16
2022-11-28T06:31:05.614Z,65.99
2022-11-28T06:32:05.694Z,66.67
2022-11-28T06:33:05.666Z,66.88
2022-11-28T06:34:05.644Z,66.27
2022-11-28T06:35:05.585Z,66.37
2022-11-28T06:36:05.569Z,65.55
2022-11-28T06:37:05.567Z,65.75
2022-11-28T06:38:08.995Z,65.65
2022-11-28T06:39:05.573Z,65.75
2022-11-28T06:40:05.507Z,65.75
2022-11-28T06:41:05.572Z,65.75
2022-11-28T06:42:05.485Z,66.06
2022-11-28T06:43:05.478Z,66.37
2022-11-28T06:44:05.517Z,65.44
2022-11-28T06:45:05.570Z,65.65
2022-11-28T06:46:05.533Z,65.23
2022-11-28T06:47:05.453Z,65.55
2022-11-28T06:48:05.420Z,65.65
2022-11-28T06:49:05.433Z,65.44
2022-11-28T06:50:05.414Z,65.13
2022-11-28T06:51:05.395Z,65.44
2022-11-28T06:52:05.439Z,66.16
2022-11-28T06:53:05.362Z,65.34
2022-11-28T06:54:05.404Z,65.55
2022-11-28T06:55:05.354Z,64.72
2022-11-28T06:56:05.347Z,65.75
2022-11-28T06:57:05.332Z,65.62
2022-11-28T06:58:05.323Z,65.72
2022-11-28T06:59:05.296Z,64.90
2022-11-28T07:00:05.323Z,65.62
2022-11-28T07:01:05.478Z,65.52
2022-11-28T07:02:07.832Z,65.62
2022-11-28T07:03:05.264Z,65.62
2022-11-28T07:04:05.264Z,65.00
2022-11-28T07:05:05.229Z,64.79
2022-11-28T07:06:05.244Z,65.20
2022-11-28T07:07:05.208Z,65.31
2022-11-28T07:08:05.393Z,64.69
2022-11-28T07:09:05.194Z,64.59
2022-11-28T07:10:05.302Z,64.59
2022-11-28T07:11:05.176Z,64.39
2022-11-28T07:12:05.166Z,64.39
2022-11-28T07:13:05.806Z,64.69
2022-11-28T07:14:05.147Z,63.25
2022-11-28T07:15:05.183Z,64.51
2022-11-28T07:16:05.125Z,64.18
2022-11-28T07:17:05.290Z,64.90
2022-11-28T07:18:05.093Z,64.59
2022-11-28T07:19:05.109Z,64.59
2022-11-28T07:20:05.061Z,64.69
2022-11-28T07:21:05.130Z,64.48
2022-11-28T07:22:05.043Z,63.46
2022-11-28T07:23:05.033Z,64.31
2022-11-28T07:24:05.033Z,64.18
2022-11-28T07:25:05.007Z,64.83
2022-11-28T07:26:05.017Z,64.51
2022-11-28T07:27:05.007Z,64.39
2022-11-28T07:28:04.978Z,64.39
2022-11-28T07:29:05.017Z,65.11
2022-11-28T07:30:04.970Z,64.72
2022-11-28T07:31:04.956Z,64.90
2022-11-28T07:32:05.041Z,64.39
2022-11-28T07:33:05.042Z,64.48
2022-11-28T07:34:04.995Z,64.28
2022-11-28T07:35:04.917Z,64.66
2022-11-28T07:36:04.886Z,64.46
2022-11-28T07:37:04.910Z,64.66
2022-11-28T07:38:04.915Z,64.39
2022-11-28T07:39:04.856Z,64.48
2022-11-28T07:40:04.846Z,64.39
2022-11-28T07:41:04.862Z,64.39
2022-11-28T07:42:04.820Z,65.11
2022-11-28T07:43:04.856Z,64.93
2022-11-28T07:44:04.889Z,65.44
2022-11-28T07:45:04.819Z,65.78
2022-11-28T07:46:04.881Z,65.37
2022-11-28T07:47:04.831Z,65.47
2022-11-28T07:48:04.758Z,65.58
2022-11-28T07:49:04.764Z,66.40
2022-11-28T07:50:04.733Z,65.68
2022-11-28T07:51:04.755Z,65.58
2022-11-28T07:52:04.717Z,65.65
2022-11-28T07:53:07.305Z,65.19
2022-11-28T07:54:04.693Z,66.02
2022-11-28T07:55:04.732Z,66.22
2022-11-28T07:56:04.676Z,66.33
2022-11-28T07:57:12.536Z,66.64
2022-11-28T07:58:04.652Z,65.89
2022-11-28T07:59:04.660Z,66.30
2022-11-28T08:00:04.622Z,65.47
2022-11-28T08:01:04.611Z,65.78
2022-11-28T08:02:04.680Z,66.09
2022-11-28T08:03:04.628Z,66.81
2022-11-28T08:04:04.722Z,65.55
2022-11-28T08:05:04.644Z,65.26
2022-11-28T08:06:04.555Z,65.37
2022-11-28T08:07:04.562Z,65.92
2022-11-28T08:08:04.585Z,66.22
2022-11-28T08:09:04.622Z,66.33
2022-11-28T08:10:04.561Z,65.99
2022-11-28T08:11:04.506Z,65.89
2022-11-28T08:13:04.482Z,65.37
2022-11-28T08:14:04.580Z,65.26
2022-11-28T08:15:04.473Z,65.75
2022-11-28T08:16:04.467Z,66.30
2022-11-28T08:17:04.530Z,66.09
2022-11-28T08:18:04.423Z,66.91
2022-11-28T08:19:04.504Z,66.67
2022-11-28T08:20:04.422Z,65.95
2022-11-28T08:21:04.459Z,65.86
2022-11-28T08:22:04.400Z,65.65
2022-11-28T08:23:04.369Z,66.47
2022-11-28T08:24:04.360Z,66.37
2022-11-28T08:25:04.354Z,67.02
2022-11-28T08:26:04.333Z,67.19
2022-11-28T08:27:04.376Z,66.91
2022-11-28T08:28:04.335Z,66.40
2022-11-28T08:29:04.305Z,67.12
2022-11-28T08:30:04.290Z,66.71
2022-11-28T08:31:04.353Z,66.19
2022-11-28T08:32:04.267Z,66.50
2022-11-28T08:33:04.464Z,66.27
2022-11-28T08:34:04.283Z,66.47
2022-11-28T08:35:04.238Z,66.47
2022-11-28T08:36:04.223Z,66.03
2022-11-28T08:37:04.234Z,65.92
2022-11-28T08:38:04.227Z,65.83
2022-11-28T08:39:33.970Z,65.83
2022-11-28T08:40:05.254Z,66.13
2022-11-28T08:41:04.209Z,65.34
2022-11-28T08:42:04.167Z,65.65
2022-11-28T08:43:04.173Z,65.34
2022-11-28T08:44:04.140Z,66.91
2022-11-28T08:45:04.133Z,66.67
2022-11-28T08:46:04.180Z,67.19
2022-11-28T08:47:04.122Z,66.99
2022-11-28T08:48:04.195Z,66.99
2022-11-28T08:49:04.793Z,66.16
2022-11-28T08:50:04.078Z,66.16
2022-11-28T08:51:04.117Z,66.67
2022-11-28T08:52:04.047Z,66.78
2022-11-28T08:53:07.762Z,66.99
2022-11-28T08:54:04.051Z,67.09
2022-11-28T08:55:04.056Z,66.58
2022-11-28T08:56:04.042Z,66.13
2022-11-28T08:57:04.004Z,66.27
2022-11-28T08:58:03.995Z,65.95
2022-11-28T08:59:03.983Z,66.03
2022-11-28T09:00:04.010Z,66.37
2022-11-28T09:01:04.031Z,66.96
2022-11-28T09:02:03.968Z,66.88
2022-11-28T09:03:03.949Z,67.02
2022-11-28T09:04:04.005Z,67.97
2022-11-28T09:05:03.905Z,68.18
2022-11-28T09:06:03.997Z,67.84
2022-11-28T09:07:03.891Z,67.40
2022-11-28T09:08:06.844Z,66.37
2022-11-28T09:09:03.888Z,67.02
2022-11-28T09:10:03.905Z,66.71
2022-11-28T09:11:03.843Z,67.02
2022-11-28T09:12:03.826Z,66.58
2022-11-28T09:13:03.820Z,67.30
2022-11-28T09:14:03.829Z,66.78
2022-11-28T09:15:03.826Z,66.78
2022-11-28T09:16:03.787Z,66.37
2022-11-28T09:17:03.913Z,67.12
2022-11-28T09:18:03.762Z,66.99
2022-11-28T09:19:03.853Z,67.02
2022-11-28T09:20:03.766Z,67.22
2022-11-28T09:21:03.731Z,67.53
2022-11-28T09:22:03.784Z,67.33
2022-11-28T09:23:03.723Z,67.33
2022-11-28T09:24:03.696Z,67.53
2022-11-28T09:25:03.713Z,66.67
2022-11-28T09:26:03.697Z,67.94
2022-11-28T09:27:03.668Z,66.78
2022-11-28T09:28:03.717Z,66.99
2022-11-28T09:29:03.674Z,67.09
2022-11-28T09:30:03.636Z,66.71
2022-11-28T09:31:03.658Z,66.61
2022-11-28T09:32:03.609Z,67.63
2022-11-28T09:33:03.663Z,67.12
2022-11-28T09:34:03.645Z,66.37
2022-11-28T09:35:03.574Z,66.78
2022-11-28T09:36:03.564Z,67.06
2022-11-28T09:37:05.030Z,66.03
2022-11-28T09:38:03.541Z,65.62
2022-11-28T09:39:03.580Z,65.52
2022-11-28T09:40:13.167Z,65.48
2022-11-28T09:41:04.571Z,65.89
2022-11-28T09:42:03.501Z,65.08
2022-11-28T09:43:03.662Z,65.35
2022-11-28T09:44:03.478Z,65.48
2022-11-28T09:45:03.513Z,65.56
2022-11-28T09:46:03.587Z,65.35
2022-11-28T09:47:03.444Z,65.35
2022-11-28T09:48:03.437Z,64.81
2022-11-28T09:49:03.451Z,65.32
2022-11-28T09:50:03.415Z,65.12
2022-11-28T09:51:03.407Z,64.91
2022-11-28T09:52:03.498Z,65.01
2022-11-28T09:53:03.498Z,64.91
2022-11-28T09:54:03.381Z,64.81
2022-11-28T09:55:03.381Z,64.88
2022-11-28T09:56:03.403Z,64.67
2022-11-28T09:57:03.354Z,64.29
2022-11-28T09:58:03.339Z,64.40
2022-11-28T09:59:03.358Z,64.84
2022-11-28T10:00:03.311Z,64.81
2022-11-28T10:01:03.343Z,64.81
2022-11-28T10:02:03.296Z,64.60
2022-11-28T10:03:03.269Z,65.01
2022-11-28T10:04:03.381Z,65.22
2022-11-28T10:05:03.318Z,64.78
2022-11-28T10:06:03.252Z,64.78
2022-11-28T10:07:03.255Z,64.37
2022-11-28T10:08:03.261Z,64.47
2022-11-28T10:09:03.226Z,64.47
2022-11-28T10:10:03.199Z,64.64
2022-11-28T10:11:03.220Z,64.44
2022-11-28T10:12:03.183Z,64.37
2022-11-28T10:13:03.178Z,63.03
2022-11-28T10:14:10.469Z,63.10
2022-11-28T10:15:04.146Z,64.34
2022-11-28T10:16:03.163Z,64.34
2022-11-28T10:17:03.238Z,63.93
2022-11-28T10:18:03.109Z,63.31
2022-11-28T10:19:03.092Z,63.42
2022-11-28T10:20:03.142Z,64.23
2022-11-28T10:21:03.092Z,63.10
2022-11-28T10:22:03.065Z,64.31
2022-11-28T10:23:03.066Z,64.03
2022-11-28T10:24:03.051Z,64.10
2022-11-28T10:25:03.070Z,63.42
2022-11-28T10:26:03.017Z,63.31
2022-11-28T10:27:03.017Z,64.34
2022-11-28T10:28:02.994Z,64.64
2022-11-28T10:29:03.066Z,64.23
2022-11-28T10:30:03.012Z,63.31
2022-11-28T10:31:03.105Z,64.23
2022-11-28T10:32:02.945Z,63.42
2022-11-28T10:33:02.947Z,63.31
2022-11-28T10:34:02.936Z,63.24
2022-11-28T10:35:02.970Z,63.13
2022-11-28T10:36:02.905Z,63.65
2022-11-28T10:37:02.895Z,64.26
2022-11-28T10:38:02.887Z,64.47
2022-11-28T10:39:06.188Z,64.47
2022-11-28T10:40:03.897Z,64.78
2022-11-28T10:41:03.024Z,64.98
2022-11-28T10:42:02.846Z,64.70
2022-11-28T10:43:02.852Z,65.14
2022-11-28T10:44:02.824Z,65.25
2022-11-28T10:45:02.858Z,65.63
2022-11-28T10:46:02.888Z,65.60
2022-11-28T10:47:02.811Z,65.29
2022-11-28T10:48:29.482Z,65.39
2022-11-28T10:49:02.775Z,65.19
2022-11-28T10:50:02.762Z,64.88
2022-11-28T10:51:02.783Z,65.09
2022-11-28T10:52:02.772Z,64.54
2022-11-28T10:53:02.729Z,65.16
2022-11-28T10:54:02.881Z,64.85
2022-11-28T10:55:02.702Z,64.64
2022-11-28T10:56:05.217Z,64.34
2022-11-28T10:57:02.681Z,64.44
2022-11-28T10:58:02.773Z,64.95
2022-11-28T10:59:02.705Z,64.44
2022-11-28T11:00:02.645Z,64.54
2022-11-28T11:01:02.746Z,64.23
2022-11-28T11:02:02.687Z,64.20
2022-11-28T11:03:02.609Z,64.10
2022-11-28T11:04:02.641Z,64.31
2022-11-28T11:05:02.678Z,64.20
2022-11-28T11:06:02.581Z,64.20
2022-11-28T11:07:12.625Z,64.10
2022-11-28T11:08:03.630Z,63.76
2022-11-28T11:09:02.546Z,63.56
2022-11-28T11:10:02.561Z,63.25
2022-11-28T11:11:02.579Z,63.25
2022-11-28T11:12:02.513Z,62.81
2022-11-28T11:13:02.540Z,63.25
2022-11-28T11:14:02.598Z,62.84
2022-11-28T11:15:02.484Z,62.98
2022-11-28T11:16:02.587Z,62.98
2022-11-28T11:17:02.479Z,63.18
2022-11-28T11:18:02.494Z,62.77
2022-11-28T11:19:02.438Z,63.49
2022-11-28T11:20:02.428Z,63.28
2022-11-28T11:21:02.424Z,63.49
2022-11-28T11:22:02.415Z,63.28
2022-11-28T11:23:02.455Z,63.49
2022-11-28T11:24:02.384Z,63.49
2022-11-28T11:25:02.376Z,63.25
2022-11-28T11:26:02.375Z,63.28
2022-11-28T11:27:02.355Z,63.39
2022-11-28T11:28:02.477Z,62.87
2022-11-28T11:29:02.358Z,63.25
2022-11-28T11:30:02.318Z,62.87
2022-11-28T11:31:02.417Z,62.77
2022-11-28T11:32:02.334Z,62.95
2022-11-28T11:33:02.388Z,62.95
2022-11-28T11:34:02.290Z,62.63
2022-11-28T11:35:02.263Z,62.74
2022-11-28T11:36:02.282Z,62.61
2022-11-28T11:37:02.252Z,62.74
2022-11-28T11:38:02.274Z,62.63
2022-11-28T11:39:02.225Z,63.35
2022-11-28T11:40:02.213Z,63.28
2022-11-28T11:41:02.262Z,62.84
2022-11-28T11:42:02.211Z,62.98
2022-11-28T11:43:02.205Z,63.15
2022-11-28T11:44:02.228Z,63.39
2022-11-28T11:45:02.170Z,63.18
2022-11-28T11:46:02.314Z,63.39
2022-11-28T11:47:02.204Z,63.05
2022-11-28T11:48:02.138Z,62.63
2022-11-28T11:49:02.158Z,62.23
2022-11-28T11:50:02.125Z,62.54
2022-11-28T11:51:02.108Z,62.23
2022-11-28T11:52:02.113Z,62.12
2022-11-28T11:53:02.090Z,63.05
2022-11-28T11:54:02.156Z,63.07
2022-11-28T11:55:03.681Z,62.98
2022-11-28T11:56:02.086Z,63.07
2022-11-28T11:57:30.553Z,63.28
2022-11-28T11:58:05.931Z,63.15
2022-11-28T11:59:02.024Z,62.74
2022-11-28T12:00:02.010Z,62.74
2022-11-28T12:01:02.008Z,62.98
2022-11-28T12:02:02.116Z,63.39
2022-11-28T12:03:02.052Z,63.39
2022-11-28T12:04:13.273Z,63.15
2022-11-28T12:05:03.110Z,63.46
2022-11-28T12:06:16.352Z,63.25
2022-11-28T12:07:02.942Z,63.35
2022-11-28T12:08:02.012Z,63.35
2022-11-28T12:09:01.926Z,63.15
2022-11-28T12:10:04.749Z,63.43
2022-11-28T12:11:01.877Z,63.35
2022-11-28T12:12:01.876Z,63.46
2022-11-28T12:13:01.866Z,63.25
2022-11-28T12:14:01.872Z,63.18
2022-11-28T12:15:01.854Z,64.20
2022-11-28T12:16:02.076Z,64.41
2022-11-28T12:17:19.535Z,64.31
2022-11-28T12:18:02.797Z,64.17
2022-11-28T12:19:01.785Z,63.15
2022-11-28T12:20:01.800Z,63.15
2022-11-28T12:21:01.787Z,63.15
2022-11-28T12:22:01.758Z,63.18
2022-11-28T12:23:01.811Z,63.05
2022-11-28T12:24:01.764Z,64.17
2022-11-28T12:25:01.768Z,63.35
2022-11-28T12:26:01.724Z,63.35
2022-11-28T12:27:01.730Z,63.25
2022-11-28T12:28:01.684Z,63.15
2022-11-28T12:29:01.680Z,63.35
2022-11-28T12:30:01.693Z,63.35
2022-11-28T12:31:02.703Z,63.05
2022-11-28T12:32:01.650Z,63.22
2022-11-28T12:33:01.628Z,62.84
2022-11-28T12:34:01.622Z,62.95
2022-11-28T12:35:01.706Z,63.35
2022-11-28T12:36:03.325Z,63.25
2022-11-28T12:37:01.635Z,63.35
2022-11-28T12:38:17.095Z,63.35
2022-11-28T12:39:02.572Z,62.71
2022-11-28T12:40:01.557Z,62.81
2022-11-28T12:41:01.553Z,62.81
2022-11-28T12:42:01.572Z,62.92
2022-11-28T12:43:01.568Z,62.71
2022-11-28T12:44:01.537Z,62.61
2022-11-28T12:45:01.496Z,62.10
2022-11-28T12:46:01.520Z,62.30
2022-11-28T12:47:01.496Z,62.19
2022-11-28T12:48:01.614Z,62.10
2022-11-28T12:49:01.461Z,62.30
2022-11-28T12:50:01.441Z,62.40
2022-11-28T12:51:01.494Z,62.30
2022-11-28T12:52:01.420Z,62.27
2022-11-28T12:53:01.424Z,62.40